Time;durP1;ratioP1;P1;durP2;ratioP2;P2;SDS_P1;SDS_P2;PMS_P1;PMS_P2;Temp;Humidity;BMP_temperature;BMP_pressure;BME280_temperature;BME280_humidity;BME280_pressure;Samples;Min_cycle;Max_cycle;Signal;HPM_P1;HPM_P2
2022/01/20 00:03:20;;;;;;;5.85;1.88;;;3.50;99.90;;;;;;4943188;28;20055;-58
2022/01/20 00:08:30;;;;;;;3.97;1.63;;;3.40;99.90;;;;;;4943510;28;20055;-58
2022/01/20 00:27:33;;;;;;;4.72;1.67;;;3.20;99.90;;;;;;4924627;29;20154;-58
2022/01/20 00:32:57;;;;;;;2.15;1.20;;;3.20;99.90;;;;;;4943037;28;20530;-58
2022/01/20 00:35:26;;;;;;;3.92;1.50;;;3.10;99.90;;;;;;4940501;28;20151;-58
2022/01/20 00:37:53;;;;;;;3.97;1.70;;;3.10;99.90;;;;;;4942220;28;20075;-58
2022/01/20 00:40:20;;;;;;;7.60;2.15;;;3.00;99.90;;;;;;4942942;28;20062;-58
2022/01/20 00:42:46;;;;;;;3.70;1.50;;;3.10;99.90;;;;;;4943019;28;20092;-58
2022/01/20 00:45:15;;;;;;;5.05;1.63;;;3.00;99.90;;;;;;4957759;28;20558;-59
2022/01/20 00:47:41;;;;;;;3.42;1.48;;;3.00;99.90;;;;;;4942965;28;20430;-58
2022/01/20 00:50:10;;;;;;;6.28;2.65;;;3.00;99.90;;;;;;4943036;28;20142;-59
2022/01/20 00:52:36;;;;;;;3.58;1.77;;;3.00;99.90;;;;;;4942592;28;20455;-57
2022/01/20 00:55:04;;;;;;;5.25;1.92;;;2.90;99.90;;;;;;4942355;28;20061;-58
2022/01/20 00:57:31;;;;;;;4.22;1.50;;;2.90;99.90;;;;;;4943800;28;20134;-58
2022/01/20 00:59:57;;;;;;;3.65;1.65;;;2.90;99.90;;;;;;4940893;28;20504;-58
2022/01/20 01:02:24;;;;;;;4.55;1.90;;;2.80;99.90;;;;;;4942490;28;20071;-59
2022/01/20 01:04:51;;;;;;;3.47;1.73;;;2.80;99.90;;;;;;4942592;28;20121;-58
2022/01/20 01:07:53;;;;;;;4.80;2.00;;;2.80;99.90;;;;;;4944588;28;20115;-59
2022/01/20 01:10:12;;;;;;;2.67;1.75;;;2.80;99.90;;;;;;4946667;28;20090;-58
2022/01/20 01:12:51;;;;;;;3.60;1.65;;;2.80;99.90;;;;;;4949112;28;20433;-59
2022/01/20 01:15:26;;;;;;;3.72;1.55;;;2.80;99.90;;;;;;4950015;28;20962;-58
2022/01/20 01:23:34;;;;;;;3.67;1.48;;;2.80;99.90;;;;;;4948860;28;20075;-58
2022/01/20 01:26:01;;;;;;;2.40;1.58;;;2.70;99.90;;;;;;4949856;28;20527;-59
2022/01/20 01:28:30;;;;;;;3.83;1.75;;;2.70;99.90;;;;;;4949957;28;20062;-58
2022/01/20 01:33:36;;;;;;;4.85;1.95;;;2.70;99.90;;;;;;4963598;28;20061;-58
2022/01/20 01:36:04;;;;;;;3.90;1.85;;;2.70;99.90;;;;;;4948302;28;20099;-58
2022/01/20 01:38:38;;;;;;;4.40;2.00;;;2.60;99.90;;;;;;4947927;28;20079;-59
2022/01/20 01:41:09;;;;;;;6.32;2.70;;;2.60;99.90;;;;;;4949756;28;20051;-59
2022/01/20 01:43:39;;;;;;;5.72;2.05;;;2.60;99.90;;;;;;4949181;28;20458;-58
2022/01/20 01:46:06;;;;;;;6.90;2.55;;;2.60;99.90;;;;;;4949818;28;20048;-58
2022/01/20 01:48:34;;;;;;;4.70;2.03;;;2.60;99.90;;;;;;4947707;28;20055;-59
2022/01/20 01:51:01;;;;;;;4.45;2.00;;;2.50;99.90;;;;;;4948807;28;20039;-59
2022/01/20 01:53:28;;;;;;;4.00;1.90;;;2.50;99.90;;;;;;4948549;28;20466;-58
2022/01/20 01:55:54;;;;;;;5.40;2.58;;;2.50;99.90;;;;;;4949177;28;20138;-58
2022/01/20 01:58:21;;;;;;;4.55;2.10;;;2.50;99.90;;;;;;4948773;28;20058;-58
2022/01/20 02:00:49;;;;;;;3.40;1.70;;;2.50;99.90;;;;;;4949214;28;20060;-58
2022/01/20 02:03:16;;;;;;;3.15;1.73;;;2.50;99.90;;;;;;4943701;28;20044;-59
2022/01/20 02:06:41;;;;;;;2.60;1.67;;;2.50;99.90;;;;;;4943106;28;20130;-59
2022/01/20 02:08:58;;;;;;;4.63;1.90;;;2.50;99.90;;;;;;4937998;29;20130;-58
2022/01/20 02:19:44;;;;;;;4.15;1.52;;;2.40;99.90;;;;;;4947919;28;20143;-58
2022/01/20 02:22:11;;;;;;;2.30;1.20;;;2.40;99.90;;;;;;4948828;28;20059;-58
2022/01/20 02:24:37;;;;;;;3.25;1.52;;;2.30;99.90;;;;;;4948270;28;20463;-59
2022/01/20 02:27:05;;;;;;;3.78;1.70;;;2.20;99.90;;;;;;4947760;28;20138;-59
2022/01/20 02:29:31;;;;;;;2.13;1.38;;;2.20;99.90;;;;;;4948483;28;20134;-58
2022/01/20 02:32:01;;;;;;;4.30;1.80;;;2.20;99.90;;;;;;4950511;28;20051;-58
2022/01/20 02:34:29;;;;;;;2.58;1.58;;;2.10;99.90;;;;;;4944072;28;20066;-58
2022/01/20 02:36:59;;;;;;;2.70;1.58;;;2.10;99.90;;;;;;4941433;29;20114;-59
2022/01/20 02:40:00;;;;;;;5.13;2.22;;;2.10;99.90;;;;;;4948870;29;20078;-59
2022/01/20 02:45:05;;;;;;;4.65;1.88;;;2.00;99.90;;;;;;4950402;29;20078;-56
2022/01/20 02:47:32;;;;;;;5.85;2.13;;;2.00;99.90;;;;;;4947902;28;20043;-58
2022/01/20 02:49:59;;;;;;;3.03;1.77;;;2.00;99.90;;;;;;4948939;28;20070;-58
2022/01/20 02:52:27;;;;;;;4.05;1.83;;;1.90;99.90;;;;;;4946831;28;20134;-58
2022/01/20 02:54:57;;;;;;;3.72;1.35;;;2.00;99.90;;;;;;4948215;28;20047;-59
2022/01/20 02:57:24;;;;;;;4.47;1.70;;;1.90;99.90;;;;;;4948829;28;20051;-59
2022/01/20 02:59:51;;;;;;;3.38;1.98;;;1.90;99.90;;;;;;4948970;28;20070;-59
2022/01/20 03:02:17;;;;;;;4.15;1.58;;;1.80;99.90;;;;;;4947568;28;20554;-59
2022/01/20 03:04:44;;;;;;;3.20;1.83;;;1.80;99.90;;;;;;4947871;28;20047;-57
2022/01/20 03:07:12;;;;;;;2.97;1.67;;;1.80;99.90;;;;;;4947803;28;20534;-59
2022/01/20 03:09:39;;;;;;;3.80;1.95;;;1.80;99.90;;;;;;4962932;28;20086;-58
2022/01/20 03:12:07;;;;;;;4.45;1.77;;;1.70;99.90;;;;;;4948471;28;20050;-59
2022/01/20 03:14:34;;;;;;;3.92;1.75;;;1.70;99.90;;;;;;4948431;28;20099;-59
2022/01/20 03:17:01;;;;;;;5.85;1.90;;;1.70;99.90;;;;;;4947625;28;20066;-58
2022/01/20 03:19:28;;;;;;;4.13;2.17;;;1.60;99.90;;;;;;4946201;29;20185;-58
2022/01/20 03:21:55;;;;;;;5.63;1.92;;;1.60;99.90;;;;;;4928475;29;20086;-58
2022/01/20 03:24:21;;;;;;;3.08;1.70;;;1.60;99.90;;;;;;4946341;28;20134;-58
2022/01/20 03:26:48;;;;;;;3.97;1.90;;;1.60;99.90;;;;;;4947590;28;20154;-58
2022/01/20 03:29:15;;;;;;;3.65;2.15;;;1.60;99.90;;;;;;4948014;28;20167;-58
2022/01/20 03:31:42;;;;;;;3.10;1.65;;;1.60;99.90;;;;;;4946971;29;20101;-58
2022/01/20 03:34:08;;;;;;;3.85;1.75;;;1.60;99.90;;;;;;4946167;28;20122;-60
2022/01/20 03:36:35;;;;;;;3.95;1.92;;;1.50;99.90;;;;;;4945328;28;20162;-59
2022/01/20 03:39:03;;;;;;;4.05;1.77;;;1.50;99.90;;;;;;4941778;28;20127;-58
2022/01/20 03:41:30;;;;;;;4.03;1.63;;;1.50;99.90;;;;;;4927676;29;20328;-58
2022/01/20 03:43:56;;;;;;;3.22;1.50;;;1.40;99.90;;;;;;4943140;28;20054;-59
2022/01/20 03:46:23;;;;;;;4.13;2.00;;;1.40;99.90;;;;;;4947513;29;20414;-58
2022/01/20 03:48:52;;;;;;;5.15;2.33;;;1.40;99.90;;;;;;4947398;28;20054;-57
2022/01/20 03:51:23;;;;;;;3.40;1.60;;;1.40;99.90;;;;;;4946504;28;20093;-58
2022/01/20 03:53:53;;;;;;;3.33;2.25;;;1.30;99.90;;;;;;4947101;28;20665;-58
2022/01/20 03:56:20;;;;;;;4.07;1.90;;;1.30;99.90;;;;;;4946733;28;20325;-58
2022/01/20 03:58:47;;;;;;;3.42;1.55;;;1.30;99.90;;;;;;4947608;28;20081;-58
2022/01/20 04:01:15;;;;;;;4.13;1.80;;;1.30;99.90;;;;;;4947884;29;20078;-58
2022/01/20 04:03:42;;;;;;;4.03;1.80;;;1.20;99.90;;;;;;4945746;28;20422;-58
2022/01/20 04:06:10;;;;;;;4.95;2.05;;;1.20;99.90;;;;;;4946562;28;20503;-59
2022/01/20 04:08:39;;;;;;;2.08;1.75;;;1.20;99.90;;;;;;4946234;28;20130;-53
2022/01/20 04:11:07;;;;;;;4.25;1.92;;;1.20;99.90;;;;;;4947863;28;20473;-58
2022/01/20 04:13:34;;;;;;;3.60;1.85;;;1.20;99.90;;;;;;4947327;28;20088;-58
2022/01/20 04:16:12;;;;;;;6.57;3.15;;;1.30;99.90;;;;;;4947100;28;20102;-58
2022/01/20 04:18:52;;;;;;;3.35;2.10;;;1.30;99.90;;;;;;4947092;28;20047;-58
2022/01/20 04:21:23;;;;;;;3.70;1.98;;;1.30;99.90;;;;;;4946293;28;20063;-56
2022/01/20 04:23:50;;;;;;;5.20;2.38;;;1.30;99.90;;;;;;4940869;28;20525;-58
2022/01/20 04:26:17;;;;;;;2.92;1.80;;;1.30;99.90;;;;;;4940879;28;20604;-59
2022/01/20 04:28:44;;;;;;;2.67;1.60;;;1.30;99.90;;;;;;4946661;28;20131;-58
2022/01/20 04:31:16;;;;;;;4.30;1.85;;;1.30;99.90;;;;;;4943436;29;20423;-58
2022/01/20 04:33:43;;;;;;;5.10;2.00;;;1.20;99.90;;;;;;4946192;28;20043;-59
2022/01/20 04:36:10;;;;;;;4.93;2.28;;;1.20;99.90;;;;;;4945375;29;20094;-58
2022/01/20 04:38:37;;;;;;;3.00;1.83;;;1.20;99.90;;;;;;4944164;28;20269;-57
2022/01/20 04:41:04;;;;;;;3.70;1.60;;;1.20;99.90;;;;;;4946318;28;20514;-58
2022/01/20 04:43:30;;;;;;;3.70;1.80;;;1.10;99.90;;;;;;4947112;28;20087;-58
2022/01/20 04:46:06;;;;;;;3.65;1.80;;;1.10;99.90;;;;;;4945309;29;20050;-58
2022/01/20 04:48:49;;;;;;;4.07;2.25;;;1.00;99.90;;;;;;4945965;28;20055;-58
2022/01/20 04:59:25;;;;;;;3.17;1.40;;;0.90;99.90;;;;;;4946706;28;20087;-59
2022/01/20 05:01:52;;;;;;;4.97;1.95;;;0.90;99.90;;;;;;4945738;28;20192;-59
2022/01/20 05:04:20;;;;;;;3.42;1.90;;;0.90;99.90;;;;;;4944619;28;20633;-58
2022/01/20 05:06:47;;;;;;;3.53;1.98;;;0.90;99.90;;;;;;4946315;28;20177;-58
2022/01/20 05:09:19;;;;;;;4.05;1.90;;;0.90;99.90;;;;;;4946164;28;20151;-58
2022/01/20 05:11:56;;;;;;;3.25;1.92;;;0.90;99.90;;;;;;4946175;28;20097;-58
2022/01/20 05:14:23;;;;;;;3.05;1.73;;;0.90;99.90;;;;;;4947077;28;20090;-59
2022/01/20 05:16:53;;;;;;;4.72;2.00;;;0.90;99.90;;;;;;4945816;28;20471;-58
2022/01/20 05:19:20;;;;;;;4.63;1.90;;;0.80;99.90;;;;;;4946432;28;20085;-58
2022/01/20 05:21:47;;;;;;;4.95;2.00;;;0.80;99.90;;;;;;4945232;28;20599;-58
2022/01/20 05:24:13;;;;;;;3.92;1.88;;;0.80;99.90;;;;;;4945388;28;20127;-58
2022/01/20 05:26:40;;;;;;;2.97;1.67;;;0.80;99.90;;;;;;4945248;28;20166;-58
2022/01/20 05:29:07;;;;;;;3.13;1.95;;;0.80;99.90;;;;;;4945319;28;20112;-58
2022/01/20 05:31:33;;;;;;;3.50;1.90;;;0.90;99.90;;;;;;4946320;28;20078;-59
2022/01/20 05:34:00;;;;;;;3.95;1.92;;;0.80;99.90;;;;;;4944178;28;20047;-58
2022/01/20 05:36:27;;;;;;;3.58;1.88;;;0.90;99.90;;;;;;4945955;29;20087;-59
2022/01/20 05:38:54;;;;;;;3.78;1.77;;;1.00;99.90;;;;;;4943124;29;20184;-59
2022/01/20 05:41:21;;;;;;;4.30;2.03;;;1.10;99.90;;;;;;4946692;28;20117;-59
2022/01/20 05:43:47;;;;;;;10.80;2.10;;;1.20;99.90;;;;;;4946149;28;20130;-58
2022/01/20 05:46:16;;;;;;;2.63;1.40;;;1.30;99.90;;;;;;4946708;29;20517;-58
2022/01/20 05:48:47;;;;;;;2.97;1.70;;;1.40;99.90;;;;;;4943204;28;20047;-58
2022/01/20 05:51:14;;;;;;;3.67;1.55;;;1.50;99.90;;;;;;4944106;28;20183;-58
2022/01/20 05:53:41;;;;;;;3.22;1.33;;;1.50;99.90;;;;;;4944694;28;20109;-58
2022/01/20 05:56:08;;;;;;;5.03;2.30;;;1.60;99.90;;;;;;4947713;28;20225;-58
2022/01/20 05:58:36;;;;;;;3.58;2.05;;;1.60;99.90;;;;;;4947355;28;20086;-58
2022/01/20 06:01:06;;;;;;;5.47;2.58;;;1.70;99.90;;;;;;4947367;28;20110;-57
2022/01/20 06:03:36;;;;;;;4.97;2.00;;;1.80;99.90;;;;;;4943589;28;20134;-58
2022/01/20 06:06:08;;;;;;;4.32;1.80;;;1.90;99.90;;;;;;4945458;28;20050;-58
2022/01/20 06:08:35;;;;;;;4.45;2.08;;;1.90;99.90;;;;;;4945286;28;20151;-59
2022/01/20 06:11:02;;;;;;;4.28;1.50;;;1.90;99.90;;;;;;4944600;28;20142;-57
2022/01/20 06:13:29;;;;;;;5.38;1.88;;;2.00;99.90;;;;;;4931665;28;20083;-58
2022/01/20 06:15:56;;;;;;;5.45;1.58;;;2.10;99.90;;;;;;4948900;28;20444;-58
2022/01/20 06:18:23;;;;;;;2.95;1.50;;;2.10;99.90;;;;;;4943829;28;20047;-58
2022/01/20 06:20:50;;;;;;;3.88;1.67;;;2.00;99.90;;;;;;4944527;28;20051;-59
2022/01/20 06:23:17;;;;;;;4.25;1.90;;;2.10;99.90;;;;;;4944979;28;20091;-59
2022/01/20 06:25:43;;;;;;;2.45;1.25;;;2.00;99.90;;;;;;4958619;28;20074;-58
2022/01/20 06:28:10;;;;;;;3.50;1.50;;;1.90;99.90;;;;;;4943398;28;20182;-59
2022/01/20 06:30:37;;;;;;;4.55;1.92;;;1.90;99.90;;;;;;4942470;28;20661;-59
2022/01/20 06:33:04;;;;;;;2.70;1.33;;;1.80;99.90;;;;;;4945336;28;20057;-58
2022/01/20 06:35:33;;;;;;;2.90;1.63;;;1.70;99.90;;;;;;4960639;28;20083;-59
2022/01/20 06:38:00;;;;;;;3.22;1.63;;;1.70;99.90;;;;;;4945076;28;20131;-57
2022/01/20 06:40:26;;;;;;;2.65;1.40;;;1.70;99.90;;;;;;4946329;28;20078;-57
2022/01/20 06:42:53;;;;;;;2.08;1.20;;;1.70;99.90;;;;;;4942464;28;20551;-58
2022/01/20 06:45:21;;;;;;;2.15;1.00;;;1.60;99.90;;;;;;4942145;28;20146;-58
2022/01/20 06:47:49;;;;;;;3.53;1.40;;;1.50;99.90;;;;;;4941526;28;20569;-58
2022/01/20 06:50:16;;;;;;;2.30;1.23;;;1.50;99.90;;;;;;4945874;28;20438;-58
2022/01/20 06:52:43;;;;;;;1.85;1.05;;;1.40;99.90;;;;;;4941468;28;20102;-58
2022/01/20 06:55:10;;;;;;;2.17;0.98;;;1.50;99.90;;;;;;4940293;28;20122;-58
2022/01/20 06:57:38;;;;;;;4.03;1.35;;;1.40;99.90;;;;;;4941163;28;20134;-58
2022/01/20 07:00:15;;;;;;;3.42;1.50;;;1.40;99.90;;;;;;4940415;28;20051;-57
2022/01/20 07:02:43;;;;;;;3.15;1.67;;;1.40;99.90;;;;;;4940601;28;20141;-59
2022/01/20 07:05:12;;;;;;;4.90;1.88;;;1.40;99.90;;;;;;4940935;28;20051;-58
2022/01/20 07:07:38;;;;;;;4.70;2.60;;;1.30;99.90;;;;;;4939370;28;20082;-58
2022/01/20 07:10:06;;;;;;;4.28;1.83;;;1.40;99.90;;;;;;4944822;28;20098;-58
2022/01/20 07:12:33;;;;;;;3.30;1.90;;;1.40;99.90;;;;;;4947403;28;20154;-58
2022/01/20 07:14:59;;;;;;;4.22;1.85;;;1.50;99.90;;;;;;4948217;28;20054;-58
2022/01/20 07:17:26;;;;;;;5.40;1.77;;;1.50;99.90;;;;;;4947448;28;20062;-58
2022/01/20 07:19:53;;;;;;;4.65;2.20;;;1.60;99.90;;;;;;4946265;28;20138;-59
2022/01/20 07:22:20;;;;;;;4.07;1.40;;;1.70;99.90;;;;;;4948689;28;20058;-58
2022/01/20 07:24:47;;;;;;;4.82;1.52;;;1.80;99.90;;;;;;4943032;28;20052;-59
2022/01/20 07:27:15;;;;;;;3.88;1.65;;;1.80;99.90;;;;;;4942300;29;20146;-58
2022/01/20 07:29:41;;;;;;;3.35;1.70;;;1.80;99.90;;;;;;4942166;28;20166;-58
2022/01/20 07:32:08;;;;;;;4.10;1.83;;;1.90;99.90;;;;;;4940583;28;20164;-58
2022/01/20 07:34:35;;;;;;;2.25;1.30;;;1.80;99.90;;;;;;4941145;28;20142;-58
2022/01/20 07:37:03;;;;;;;3.33;1.48;;;1.80;99.90;;;;;;4940820;28;20178;-58
2022/01/20 07:39:29;;;;;;;4.55;1.30;;;1.70;99.90;;;;;;4941447;28;20142;-58
2022/01/20 07:41:57;;;;;;;3.65;1.42;;;1.70;99.90;;;;;;4941337;28;20577;-59
2022/01/20 07:44:23;;;;;;;3.00;1.13;;;1.70;99.90;;;;;;4946556;28;20094;-58
2022/01/20 07:46:50;;;;;;;4.25;1.30;;;1.70;99.90;;;;;;4960077;28;20085;-58
2022/01/20 07:49:17;;;;;;;2.30;1.00;;;1.70;99.90;;;;;;4952700;28;20133;-59
2022/01/20 07:51:44;;;;;;;2.72;1.23;;;1.70;99.90;;;;;;4941213;28;20137;-57
2022/01/20 07:54:11;;;;;;;3.35;1.00;;;1.60;99.90;;;;;;4941215;28;20130;-59
2022/01/20 07:56:40;;;;;;;2.70;1.08;;;1.50;99.90;;;;;;4939507;28;20141;-57
2022/01/20 07:59:08;;;;;;;2.50;1.00;;;1.50;99.90;;;;;;4941408;28;20291;-58
2022/01/20 08:01:34;;;;;;;2.20;1.27;;;1.50;99.90;;;;;;4940793;28;20090;-58
2022/01/20 08:04:01;;;;;;;2.40;1.10;;;1.40;99.90;;;;;;4941268;28;20059;-58
2022/01/20 08:06:28;;;;;;;3.15;1.73;;;1.40;99.90;;;;;;4943573;28;20134;-59
2022/01/20 08:08:55;;;;;;;2.83;1.25;;;1.40;99.90;;;;;;4946291;28;20135;-58
2022/01/20 08:11:22;;;;;;;2.85;1.50;;;1.30;99.90;;;;;;4951331;28;20061;-58
2022/01/20 08:13:49;;;;;;;3.10;1.40;;;1.30;99.90;;;;;;4946345;28;20043;-58
2022/01/20 08:16:16;;;;;;;3.42;1.83;;;1.30;99.90;;;;;;4949508;28;20154;-58
2022/01/20 08:18:42;;;;;;;4.13;1.88;;;1.30;99.90;;;;;;4939274;28;20118;-58
2022/01/20 08:21:09;;;;;;;3.50;1.65;;;1.30;99.90;;;;;;4938656;29;20138;-59
2022/01/20 08:23:36;;;;;;;3.05;1.83;;;1.30;99.90;;;;;;4939269;28;20166;-58
2022/01/20 08:26:03;;;;;;;4.05;2.03;;;1.40;99.90;;;;;;4939312;28;20154;-57
2022/01/20 08:28:30;;;;;;;4.43;2.35;;;1.30;99.90;;;;;;4938168;28;20057;-58
2022/01/20 08:30:57;;;;;;;4.60;1.90;;;1.30;99.90;;;;;;4939504;28;20047;-58
2022/01/20 08:33:23;;;;;;;4.82;2.17;;;1.40;99.90;;;;;;4939564;28;20387;-58
2022/01/20 08:35:50;;;;;;;6.38;2.92;;;1.40;99.90;;;;;;4940329;28;20139;-58
2022/01/20 08:38:17;;;;;;;5.97;2.38;;;1.50;99.90;;;;;;4939182;28;20394;-58
2022/01/20 08:40:44;;;;;;;4.28;2.15;;;1.60;99.90;;;;;;4939136;28;20074;-59
2022/01/20 08:43:11;;;;;;;4.20;2.25;;;1.80;99.90;;;;;;4939097;28;20214;-57
2022/01/20 08:45:38;;;;;;;3.03;1.55;;;1.90;99.90;;;;;;4944199;28;20050;-58
2022/01/20 08:48:05;;;;;;;5.90;2.20;;;2.00;99.90;;;;;;4938527;28;20135;-58
2022/01/20 08:50:32;;;;;;;4.72;2.05;;;2.10;99.90;;;;;;4934084;28;20052;-58
2022/01/20 08:52:59;;;;;;;5.72;1.95;;;2.20;99.90;;;;;;4927812;28;20516;-58
2022/01/20 08:55:29;;;;;;;5.45;2.30;;;2.40;99.90;;;;;;4939467;28;20142;-58
2022/01/20 08:57:56;;;;;;;5.85;2.20;;;2.40;99.90;;;;;;4938856;28;20055;-58
2022/01/20 09:00:25;;;;;;;6.07;2.30;;;2.50;99.90;;;;;;4940057;28;20047;-59
2022/01/20 09:02:51;;;;;;;7.05;2.03;;;2.60;99.90;;;;;;4939269;28;20179;-58
2022/01/20 09:05:18;;;;;;;5.55;2.35;;;2.70;99.90;;;;;;4922415;29;20145;-58
2022/01/20 09:07:45;;;;;;;4.03;1.48;;;2.80;99.90;;;;;;4940062;28;20130;-59
2022/01/20 09:10:19;;;;;;;4.40;1.85;;;2.80;99.90;;;;;;4940272;28;20607;-59
2022/01/20 09:15:31;;;;;;;5.07;1.75;;;2.90;99.90;;;;;;4940906;28;20146;-59
2022/01/20 09:18:18;;;;;;;6.55;2.03;;;2.90;99.90;;;;;;4938609;29;20094;-59
2022/01/20 09:20:44;;;;;;;6.22;2.00;;;3.00;99.90;;;;;;4939350;28;20043;-59
2022/01/20 09:23:11;;;;;;;6.32;2.20;;;3.10;99.90;;;;;;4938449;28;20664;-59
2022/01/20 09:25:40;;;;;;;2.90;1.50;;;3.10;99.90;;;;;;4938648;28;20511;-59
2022/01/20 09:28:07;;;;;;;5.10;1.70;;;3.10;99.90;;;;;;4939791;28;20134;-59
2022/01/20 09:30:35;;;;;;;5.05;1.60;;;3.20;99.90;;;;;;4942631;28;20114;-59
2022/01/20 09:33:13;;;;;;;5.85;2.38;;;3.20;99.90;;;;;;4937679;28;20490;-59
2022/01/20 09:35:41;;;;;;;6.75;2.20;;;3.30;99.90;;;;;;4942602;28;20534;-59
2022/01/20 09:38:08;;;;;;;4.82;2.00;;;3.40;99.90;;;;;;4945565;28;20546;-59
2022/01/20 09:40:39;;;;;;;10.98;2.55;;;3.40;99.90;;;;;;4946215;28;20069;-59
2022/01/20 09:43:07;;;;;;;6.15;2.10;;;3.40;99.90;;;;;;4944215;28;20501;-59
2022/01/20 09:45:34;;;;;;;5.78;2.15;;;3.50;99.90;;;;;;4952273;28;20047;-59
2022/01/20 09:48:01;;;;;;;7.25;2.40;;;3.50;99.90;;;;;;4951886;28;20130;-59
2022/01/20 09:50:28;;;;;;;5.40;1.80;;;3.60;99.90;;;;;;4948393;28;20204;-59
2022/01/20 09:53:01;;;;;;;6.15;2.47;;;3.60;99.90;;;;;;4946032;28;20186;-59
2022/01/20 09:55:28;;;;;;;6.25;2.20;;;3.60;99.90;;;;;;4950201;28;20142;-59
2022/01/20 09:57:55;;;;;;;6.18;2.17;;;3.60;99.90;;;;;;4943013;28;20133;-59
2022/01/20 10:00:22;;;;;;;6.28;2.40;;;3.70;99.90;;;;;;4947609;28;20086;-59
2022/01/20 10:02:54;;;;;;;7.60;2.20;;;3.70;99.90;;;;;;4939535;28;20193;-59
2022/01/20 10:05:28;;;;;;;4.00;1.58;;;3.70;99.90;;;;;;4940181;28;20162;-59
2022/01/20 10:08:00;;;;;;;5.53;2.20;;;3.70;99.90;;;;;;4939911;28;20514;-59
2022/01/20 10:10:39;;;;;;;8.18;1.83;;;3.80;99.90;;;;;;4939968;28;20084;-59
2022/01/20 10:13:07;;;;;;;7.78;2.28;;;3.80;99.90;;;;;;4938384;28;20063;-59
2022/01/20 10:15:35;;;;;;;8.32;2.30;;;3.70;99.90;;;;;;4940994;28;20233;-59
2022/01/20 10:18:06;;;;;;;4.88;2.17;;;3.80;99.90;;;;;;4937673;28;20141;-59
2022/01/20 10:20:33;;;;;;;10.23;3.55;;;3.90;99.90;;;;;;4942138;28;20063;-59
2022/01/20 10:23:00;;;;;;;8.95;2.63;;;3.90;99.90;;;;;;4942537;28;20083;-59
2022/01/20 10:25:27;;;;;;;8.88;2.30;;;4.00;99.90;;;;;;4942261;28;20087;-60
2022/01/20 10:27:55;;;;;;;6.15;2.33;;;4.00;99.90;;;;;;4942084;28;20118;-59
2022/01/20 10:30:25;;;;;;;6.97;1.95;;;4.00;99.90;;;;;;4941608;28;20138;-60
2022/01/20 10:32:54;;;;;;;6.10;1.98;;;4.10;99.90;;;;;;4940745;28;20471;-59
2022/01/20 10:35:26;;;;;;;8.00;2.80;;;4.10;99.90;;;;;;4941472;28;20441;-59
2022/01/20 10:38:00;;;;;;;5.30;2.72;;;4.10;99.90;;;;;;4942137;28;20091;-59
2022/01/20 10:40:27;;;;;;;7.50;2.95;;;4.20;99.90;;;;;;4942137;28;20138;-59
2022/01/20 10:42:54;;;;;;;8.63;3.13;;;4.20;99.90;;;;;;4944669;28;20153;-58
2022/01/20 10:45:25;;;;;;;6.50;2.60;;;4.20;99.90;;;;;;4945351;28;20351;-58
2022/01/20 10:47:57;;;;;;;7.43;2.00;;;4.20;99.90;;;;;;4943926;28;20086;-58
2022/01/20 10:50:29;;;;;;;9.27;1.90;;;4.30;99.90;;;;;;4943449;28;20146;-58
2022/01/20 10:52:56;;;;;;;5.45;2.47;;;4.30;99.90;;;;;;4949690;28;20053;-59
2022/01/20 10:55:32;;;;;;;6.28;1.92;;;4.40;99.90;;;;;;4952171;28;20057;-58
2022/01/20 10:58:09;;;;;;;9.70;3.35;;;4.40;99.90;;;;;;4958123;28;20085;-59
2022/01/20 11:00:41;;;;;;;7.65;1.95;;;4.40;99.90;;;;;;4944213;28;20515;-58
2022/01/20 11:03:08;;;;;;;7.75;1.63;;;4.40;99.90;;;;;;4943925;28;20122;-58
2022/01/20 11:05:34;;;;;;;9.35;2.83;;;4.50;99.90;;;;;;4943667;28;20130;-58
2022/01/20 11:08:01;;;;;;;4.78;1.98;;;4.50;99.90;;;;;;4944326;28;20083;-58
2022/01/20 11:10:28;;;;;;;7.20;1.83;;;4.50;99.90;;;;;;4941907;28;20051;-58
2022/01/20 11:12:55;;;;;;;9.98;2.85;;;4.50;99.90;;;;;;4943058;28;20083;-57
2022/01/20 11:15:23;;;;;;;9.27;2.53;;;4.60;99.90;;;;;;4942943;29;20051;-59
2022/01/20 11:17:51;;;;;;;7.93;2.42;;;4.70;99.90;;;;;;4943883;28;20061;-60
2022/01/20 11:20:21;;;;;;;7.05;2.20;;;4.70;99.90;;;;;;4942206;28;20091;-59
2022/01/20 11:22:58;;;;;;;8.75;2.17;;;4.80;99.90;;;;;;4941781;28;20577;-59
2022/01/20 11:25:29;;;;;;;6.07;2.30;;;4.80;99.90;;;;;;4944532;28;20491;-59
2022/01/20 11:28:16;;;;;;;4.40;1.60;;;5.00;99.90;;;;;;4950715;28;20058;-58
2022/01/20 11:31:04;;;;;;;6.60;1.92;;;4.90;99.90;;;;;;4946682;28;20078;-59
2022/01/20 11:33:38;;;;;;;7.13;2.15;;;4.90;99.90;;;;;;4936792;28;20055;-58
2022/01/20 11:36:09;;;;;;;6.90;1.83;;;5.00;99.90;;;;;;4936075;29;20134;-59
2022/01/20 11:38:50;;;;;;;4.95;1.58;;;5.00;99.90;;;;;;4940355;28;20633;-59
2022/01/20 11:41:17;;;;;;;5.68;2.15;;;5.10;99.90;;;;;;4941218;28;20138;-59
2022/01/20 11:43:46;;;;;;;5.25;1.75;;;5.10;99.90;;;;;;4940818;28;20101;-59
2022/01/20 11:46:16;;;;;;;5.85;1.80;;;5.10;99.90;;;;;;4941000;28;20475;-59
2022/01/20 11:49:03;;;;;;;8.20;2.63;;;5.10;99.90;;;;;;4947627;28;20138;-60
2022/01/20 11:51:53;;;;;;;9.20;2.38;;;5.10;99.90;;;;;;4944540;28;20130;-59
2022/01/20 11:54:38;;;;;;;8.45;2.60;;;5.10;99.90;;;;;;4944267;28;20055;-59
2022/01/20 11:57:06;;;;;;;7.38;2.20;;;5.10;99.90;;;;;;4951364;28;20043;-59
2022/01/20 11:59:40;;;;;;;5.80;1.70;;;5.20;99.90;;;;;;4941607;28;20134;-59
2022/01/20 12:02:07;;;;;;;6.82;2.45;;;5.20;99.90;;;;;;4940285;28;20134;-59
2022/01/20 12:04:38;;;;;;;6.78;2.10;;;5.20;99.90;;;;;;4940442;28;20082;-59
2022/01/20 12:07:05;;;;;;;7.30;1.70;;;5.30;99.90;;;;;;4944675;28;20051;-60
2022/01/20 12:09:36;;;;;;;7.30;2.15;;;5.60;99.90;;;;;;4945760;28;20098;-59
2022/01/20 12:12:04;;;;;;;4.68;1.80;;;5.60;99.90;;;;;;4942445;28;20055;-60
2022/01/20 12:14:35;;;;;;;6.93;2.40;;;5.80;99.90;;;;;;4948676;28;20292;-60
2022/01/20 12:17:14;;;;;;;9.57;2.40;;;5.90;99.90;;;;;;4938700;28;20086;-61
2022/01/20 12:19:43;;;;;;;4.82;2.20;;;6.10;99.90;;;;;;4939585;28;20710;-59
2022/01/20 12:22:09;;;;;;;7.85;2.55;;;6.10;99.90;;;;;;4940559;28;20143;-59
2022/01/20 12:24:36;;;;;;;7.35;2.70;;;6.30;99.90;;;;;;4940620;28;20051;-59
2022/01/20 12:27:24;;;;;;;7.80;2.95;;;6.20;99.90;;;;;;4940056;28;20531;-59
2022/01/20 12:29:51;;;;;;;4.60;1.83;;;6.30;99.90;;;;;;4939085;28;20310;-61
2022/01/20 12:32:19;;;;;;;6.32;2.05;;;6.40;99.90;;;;;;4935955;28;20059;-59
2022/01/20 12:35:00;;;;;;;5.38;2.35;;;6.60;99.90;;;;;;4939275;28;20147;-59
2022/01/20 12:37:37;;;;;;;4.47;2.30;;;6.70;99.90;;;;;;4938512;29;20119;-59
2022/01/20 12:40:18;;;;;;;7.35;1.90;;;6.80;99.90;;;;;;4942361;28;20070;-60
2022/01/20 12:42:45;;;;;;;4.60;2.00;;;6.80;99.90;;;;;;4945818;28;20133;-59
2022/01/20 12:48:10;;;;;;;8.85;2.60;;;7.20;99.90;;;;;;4946827;28;20141;-60
2022/01/20 12:50:37;;;;;;;5.55;2.15;;;7.20;99.90;;;;;;4948423;28;20149;-60
2022/01/20 12:53:04;;;;;;;3.22;1.25;;;7.00;99.90;;;;;;4945403;28;20130;-59
2022/01/20 12:55:31;;;;;;;3.88;1.30;;;7.20;99.90;;;;;;4949203;28;20043;-59
2022/01/20 12:57:59;;;;;;;2.30;1.27;;;7.30;99.90;;;;;;4948270;28;20051;-59
2022/01/20 13:00:25;;;;;;;5.18;1.40;;;7.40;99.90;;;;;;4945977;28;20531;-60
2022/01/20 13:02:52;;;;;;;4.88;1.90;;;7.50;99.90;;;;;;4946224;28;20463;-59
2022/01/20 13:05:20;;;;;;;5.22;2.38;;;7.50;99.90;;;;;;4948328;28;20655;-59
2022/01/20 13:07:52;;;;;;;6.55;2.38;;;7.50;99.90;;;;;;4946878;28;20047;-58
2022/01/20 13:10:33;;;;;;;4.55;1.92;;;7.40;99.90;;;;;;4942059;28;20050;-60
2022/01/20 13:13:05;;;;;;;3.58;1.80;;;7.80;99.90;;;;;;4928037;28;20151;-60
2022/01/20 13:15:32;;;;;;;5.75;1.95;;;7.80;99.90;;;;;;4942944;28;20533;-60
2022/01/20 13:18:07;;;;;;;6.35;1.67;;;8.00;99.90;;;;;;4943186;28;20171;-59
2022/01/20 13:20:40;;;;;;;3.85;1.50;;;7.70;99.90;;;;;;4945712;28;20079;-60
2022/01/20 13:25:49;;;;;;;3.50;1.50;;;7.20;99.90;;;;;;4959309;28;20050;-59
2022/01/20 13:28:17;;;;;;;3.13;1.20;;;7.10;99.90;;;;;;4955971;28;20170;-59
2022/01/20 13:30:48;;;;;;;3.03;1.02;;;6.90;99.90;;;;;;4944393;28;20496;-58
2022/01/20 13:33:20;;;;;;;2.85;1.08;;;6.80;99.90;;;;;;4948278;28;20142;-58
2022/01/20 13:35:48;;;;;;;3.20;0.80;;;6.70;99.90;;;;;;4946292;28;20106;-59
2022/01/20 13:38:15;;;;;;;2.50;1.00;;;6.60;99.90;;;;;;4942548;28;20123;-59
2022/01/20 13:40:44;;;;;;;3.22;1.25;;;6.60;99.90;;;;;;4942819;28;20055;-59
2022/01/20 13:45:42;;;;;;;4.22;0.98;;;6.60;99.90;;;;;;4943869;28;20170;-59
2022/01/20 13:48:10;;;;;;;4.10;0.90;;;6.60;99.90;;;;;;4943074;28;20055;-59
2022/01/20 13:50:47;;;;;;;2.88;1.50;;;6.60;99.90;;;;;;4936243;28;20559;-58
2022/01/20 13:53:15;;;;;;;7.68;1.35;;;6.70;99.90;;;;;;4940668;28;20135;-58
2022/01/20 13:55:47;;;;;;;6.80;1.50;;;6.60;99.90;;;;;;4943045;28;20431;-58
2022/01/20 13:58:30;;;;;;;4.55;1.45;;;6.60;99.90;;;;;;4943489;28;20727;-58
2022/01/20 14:00:58;;;;;;;5.38;1.35;;;6.50;99.90;;;;;;4942543;28;20087;-58
2022/01/20 14:03:25;;;;;;;3.38;1.30;;;6.50;99.90;;;;;;4941925;28;20240;-58
2022/01/20 14:05:55;;;;;;;5.63;1.27;;;6.50;99.90;;;;;;4943855;28;20505;-59
2022/01/20 14:08:23;;;;;;;4.22;1.65;;;6.30;99.90;;;;;;4943549;28;20143;-56
2022/01/20 14:10:50;;;;;;;6.10;2.42;;;6.20;99.90;;;;;;4946017;28;20043;-58